Time;durP1;ratioP1;P1;durP2;ratioP2;P2;SDS_P1;SDS_P2;PMS_P1;PMS_P2;Temp;Humidity;BMP_temperature;BMP_pressure;BME280_temperature;BME280_humidity;BME280_pressure;Samples;Min_cycle;Max_cycle;Signal;HPM_P1;HPM_P2
2022/05/23 00:02:46;;;;;;;;;;;;;;;16.52;65.33;98407.50;8354466;28;19975;-71
2022/05/23 00:06:49;;;;;;;;;;;;;;;16.53;65.75;98388.25;8349497;28;20238;-71
2022/05/23 00:10:50;;;;;;;;;;;;;;;16.53;65.71;98394.34;8357551;28;19967;-71
2022/05/23 00:14:52;;;;;;;;;;;;;;;16.54;67.15;98388.19;8355620;28;19929;-71
2022/05/23 00:18:54;;;;;;;;;;;;;;;16.60;64.93;98363.44;8321734;28;19924;-71
2022/05/23 00:22:55;;;;;;;;;;;;;;;16.63;65.67;98324.84;8318462;28;20232;-71
2022/05/23 00:26:57;;;;;;;;;;;;;;;16.64;66.17;98304.72;8313368;28;19929;-71
2022/05/23 00:30:58;;;;;;;;;;;;;;;16.58;65.29;98326.84;8319284;28;19964;-71
2022/05/23 00:35:17;;;;;;;;;;;;;;;16.52;66.61;98336.75;8349530;28;19987;-71
2022/05/23 00:39:23;;;;;;;;;;;;;;;16.30;67.41;98344.69;8343387;28;19932;-71
2022/05/23 00:43:26;;;;;;;;;;;;;;;16.15;68.31;98324.41;8346009;28;19931;-71
2022/05/23 00:47:29;;;;;;;;;;;;;;;16.08;68.15;98315.13;8329310;28;20376;-71
2022/05/23 00:51:31;;;;;;;;;;;;;;;16.08;68.67;98315.13;8318983;28;19925;-71
2022/05/23 00:55:37;;;;;;;;;;;;;;;15.96;69.58;98296.41;8318218;28;19957;-71
2022/05/23 00:59:39;;;;;;;;;;;;;;;15.93;69.01;98308.81;8302181;28;19925;-71
2022/05/23 01:03:40;;;;;;;;;;;;;;;15.89;70.21;98312.47;8315158;28;19967;-71
2022/05/23 01:07:42;;;;;;;;;;;;;;;15.89;70.05;98308.09;8318530;28;19928;-71
2022/05/23 01:11:43;;;;;;;;;;;;;;;15.93;69.24;98303.56;8319025;28;19968;-71
2022/05/23 01:15:46;;;;;;;;;;;;;;;15.91;68.82;98298.41;8316678;28;20019;-71
2022/05/23 01:19:48;;;;;;;;;;;;;;;16.02;67.53;98293.56;8318888;28;19999;-71
2022/05/23 01:23:49;;;;;;;;;;;;;;;16.09;67.30;98291.50;8317061;28;20056;-71
2022/05/23 01:27:51;;;;;;;;;;;;;;;16.18;67.05;98287.63;8317755;28;19925;-71
2022/05/23 01:31:53;;;;;;;;;;;;;;;16.27;66.43;98277.59;8299462;28;19931;-71
2022/05/23 01:35:57;;;;;;;;;;;;;;;16.36;66.00;98278.09;8316894;28;20016;-71
2022/05/23 01:39:58;;;;;;;;;;;;;;;16.44;65.38;98275.97;8317454;28;20644;-71
2022/05/23 01:44:00;;;;;;;;;;;;;;;16.49;65.40;98279.22;8317709;28;20491;-71
2022/05/23 01:48:01;;;;;;;;;;;;;;;16.52;65.17;98286.97;8331632;28;20007;-71
2022/05/23 01:52:03;;;;;;;;;;;;;;;16.52;66.27;98297.44;8335593;28;19986;-71
2022/05/23 01:56:05;;;;;;;;;;;;;;;16.46;68.72;98335.25;8344937;28;19972;-71
2022/05/23 02:04:27;;;;;;;;;;;;;;;16.29;69.09;98405.88;8343121;28;19924;-71
2022/05/23 02:08:29;;;;;;;;;;;;;;;16.21;69.89;98424.56;8347846;28;19964;-70
2022/05/23 02:12:31;;;;;;;;;;;;;;;16.18;70.20;98502.41;8345676;28;20371;-71
2022/05/23 02:16:32;;;;;;;;;;;;;;;15.99;73.41;98604.44;8344946;28;19935;-72
2022/05/23 02:20:33;;;;;;;;;;;;;;;15.87;73.91;98586.56;8342033;28;19925;-72
2022/05/23 02:24:35;;;;;;;;;;;;;;;15.75;76.25;98574.81;8342704;28;19925;-71
2022/05/23 02:28:36;;;;;;;;;;;;;;;15.71;78.00;98547.03;8342892;28;20467;-71
2022/05/23 02:32:38;;;;;;;;;;;;;;;15.61;79.50;98532.59;8349345;28;19964;-73
2022/05/23 02:36:39;;;;;;;;;;;;;;;15.47;81.27;98520.03;8335998;28;19931;-73
2022/05/23 02:40:41;;;;;;;;;;;;;;;15.38;82.71;98502.91;8352543;28;19929;-74
2022/05/23 02:44:42;;;;;;;;;;;;;;;15.36;83.62;98496.03;8360371;28;19952;-73
2022/05/23 02:48:43;;;;;;;;;;;;;;;15.40;83.87;98484.53;8341391;28;19925;-74
2022/05/23 02:52:45;;;;;;;;;;;;;;;15.32;84.00;98473.53;8355786;28;20313;-74
2022/05/23 02:56:47;;;;;;;;;;;;;;;15.30;84.64;98468.34;8351204;28;20252;-73
2022/05/23 03:00:48;;;;;;;;;;;;;;;15.26;85.33;98458.03;8349066;28;19931;-73
2022/05/23 03:04:50;;;;;;;;;;;;;;;15.29;85.96;98448.34;8354240;28;20467;-73
2022/05/23 03:08:51;;;;;;;;;;;;;;;15.26;86.17;98458.03;8350403;28;20289;-73
2022/05/23 03:12:53;;;;;;;;;;;;;;;15.23;86.98;98438.09;8318675;28;20347;-73
2022/05/23 03:16:59;;;;;;;;;;;;;;;15.20;87.76;98419.91;8347915;28;19967;-73
2022/05/23 03:21:02;;;;;;;;;;;;;;;15.20;88.14;98414.69;8331974;28;19936;-72
2022/05/23 03:29:26;;;;;;;;;;;;;;;15.11;88.12;98388.91;8352673;28;20019;-73
2022/05/23 03:33:28;;;;;;;;;;;;;;;15.11;88.46;98361.00;8356195;28;19932;-73
2022/05/23 03:37:29;;;;;;;;;;;;;;;15.13;88.92;98350.47;8330084;28;19928;-73
2022/05/23 03:41:31;;;;;;;;;;;;;;;15.07;89.29;98348.94;8346840;28;20280;-73
2022/05/23 03:45:33;;;;;;;;;;;;;;;15.02;89.55;98329.97;8352500;28;20348;-75
2022/05/23 03:49:35;;;;;;;;;;;;;;;15.05;89.96;98279.31;8333080;28;20530;-75
2022/05/23 03:53:37;;;;;;;;;;;;;;;15.07;89.77;98220.81;8336154;28;19925;-75
2022/05/23 03:57:38;;;;;;;;;;;;;;;15.05;89.60;98143.38;8332464;28;19924;-74
2022/05/23 04:01:40;;;;;;;;;;;;;;;15.02;88.91;98128.69;8337221;28;19931;-74
2022/05/23 04:05:42;;;;;;;;;;;;;;;14.98;88.63;98149.78;8325708;28;19925;-74
2022/05/23 04:09:44;;;;;;;;;;;;;;;14.98;89.06;98155.03;8332859;28;19935;-74
2022/05/23 04:13:47;;;;;;;;;;;;;;;15.02;88.83;98076.41;8345272;28;20454;-75
2022/05/23 04:17:49;;;;;;;;;;;;;;;14.97;89.11;98043.53;8342896;28;19978;-75
2022/05/23 04:21:51;;;;;;;;;;;;;;;14.96;88.87;98088.88;8352449;28;19933;-75
2022/05/23 04:25:52;;;;;;;;;;;;;;;14.96;88.72;98100.19;8354853;28;20356;-75
2022/05/23 04:29:54;;;;;;;;;;;;;;;15.00;88.21;98072.16;8334530;28;19924;-75
2022/05/23 04:38:17;;;;;;;;;;;;;;;15.08;88.19;98043.91;8348345;28;20310;-74
2022/05/23 04:42:18;;;;;;;;;;;;;;;15.10;88.88;98027.25;8350385;28;19924;-74
2022/05/23 04:46:20;;;;;;;;;;;;;;;15.08;89.08;98018.63;8350654;28;19925;-74
2022/05/23 04:50:21;;;;;;;;;;;;;;;15.09;88.69;98024.72;8349584;28;19982;-74
2022/05/23 04:54:22;;;;;;;;;;;;;;;15.14;88.49;98017.50;8352000;28;20055;-74
2022/05/23 04:58:24;;;;;;;;;;;;;;;15.19;87.80;98036.44;8350272;28;20007;-74
2022/05/23 05:02:25;;;;;;;;;;;;;;;15.24;87.73;98047.53;8339343;28;19924;-74
2022/05/23 05:06:27;;;;;;;;;;;;;;;15.27;87.44;98068.34;8348421;28;19967;-74
2022/05/23 05:10:28;;;;;;;;;;;;;;;15.30;87.39;98090.88;8350468;28;20430;-74
2022/05/23 05:14:30;;;;;;;;;;;;;;;15.30;88.30;98110.03;8342186;28;20711;-74
2022/05/23 05:18:32;;;;;;;;;;;;;;;15.40;88.98;98116.53;8343630;28;19929;-75
2022/05/23 05:22:35;;;;;;;;;;;;;;;15.47;89.91;98116.28;8347375;28;19925;-74
2022/05/23 05:26:36;;;;;;;;;;;;;;;15.58;89.39;98127.13;8348498;28;19935;-74
2022/05/23 05:30:41;;;;;;;;;;;;;;;15.68;88.08;98133.69;8344221;28;20316;-74
2022/05/23 05:34:48;;;;;;;;;;;;;;;15.83;87.42;98156.53;8355225;28;19991;-74
2022/05/23 05:38:56;;;;;;;;;;;;;;;16.08;86.45;98164.09;8352732;28;19925;-74
2022/05/23 05:43:00;;;;;;;;;;;;;;;16.23;84.41;98171.25;8349932;28;19960;-75
2022/05/23 05:47:05;;;;;;;;;;;;;;;16.40;84.36;98186.19;8347293;28;20214;-75
2022/05/23 05:51:26;;;;;;;;;;;;;;;16.55;84.61;98182.00;8358691;28;19925;-74
2022/05/23 05:55:27;;;;;;;;;;;;;;;16.59;83.35;98186.16;8341201;28;20338;-74
2022/05/23 05:59:29;;;;;;;;;;;;;;;16.69;83.74;98179.56;8341748;28;19960;-74
2022/05/23 06:03:32;;;;;;;;;;;;;;;16.80;82.63;98185.16;8340360;28;20321;-73
2022/05/23 06:11:53;;;;;;;;;;;;;;;17.17;80.37;98173.66;8344137;28;20391;-74
2022/05/23 06:15:55;;;;;;;;;;;;;;;17.42;80.18;98173.28;8348314;28;20224;-74
2022/05/23 06:19:56;;;;;;;;;;;;;;;17.48;79.38;98175.59;8355275;28;19960;-73
2022/05/23 06:23:58;;;;;;;;;;;;;;;17.59;78.95;98161.88;8347698;28;19925;-73
2022/05/23 06:28:06;;;;;;;;;;;;;;;17.85;79.00;98159.72;8342119;28;19925;-73
2022/05/23 06:32:07;;;;;;;;;;;;;;;17.99;77.77;98171.16;8356690;28;20426;-74
2022/05/23 06:36:09;;;;;;;;;;;;;;;17.99;77.08;98133.56;8352672;28;20442;-74
2022/05/23 06:40:12;;;;;;;;;;;;;;;18.73;74.16;98125.91;8357743;28;20420;-74
2022/05/23 06:44:13;;;;;;;;;;;;;;;19.27;72.00;98131.47;8354351;28;19982;-73
2022/05/23 06:48:15;;;;;;;;;;;;;;;19.80;70.41;98104.53;8346452;28;20365;-74
2022/05/23 06:52:16;;;;;;;;;;;;;;;19.48;70.38;98066.16;8348178;28;19924;-73
2022/05/23 06:56:18;;;;;;;;;;;;;;;19.19;71.27;98046.88;8338340;28;20309;-73
2022/05/23 07:00:20;;;;;;;;;;;;;;;19.18;71.59;98046.03;8353762;28;19970;-72
2022/05/23 07:04:21;;;;;;;;;;;;;;;19.07;72.60;98066.88;8359821;28;19939;-73
2022/05/23 07:12:43;;;;;;;;;;;;;;;19.70;70.04;98142.91;8356913;28;20015;-73
2022/05/23 07:16:44;;;;;;;;;;;;;;;20.37;68.84;98140.47;8347158;28;20372;-73
2022/05/23 07:20:46;;;;;;;;;;;;;;;20.89;66.72;98116.84;8342241;28;19935;-73
2022/05/23 07:24:47;;;;;;;;;;;;;;;21.33;65.16;98113.84;8349361;28;19931;-74
2022/05/23 07:28:49;;;;;;;;;;;;;;;21.65;64.05;98119.56;8350498;28;19968;-73
2022/05/23 07:32:50;;;;;;;;;;;;;;;21.45;63.71;98122.75;8340678;28;20032;-75
2022/05/23 07:36:52;;;;;;;;;;;;;;;21.46;63.45;98129.72;8345549;28;20007;-73
2022/05/23 07:40:54;;;;;;;;;;;;;;;21.87;62.16;98120.69;8349258;28;20011;-74
2022/05/23 07:44:55;;;;;;;;;;;;;;;22.34;61.83;98140.28;8348282;28;19924;-73
2022/05/23 07:48:57;;;;;;;;;;;;;;;22.84;61.00;98133.97;8338631;28;19924;-73
2022/05/23 08:01:45;;;;;;;;;;;;;;;23.66;57.74;98140.94;8345410;28;19928;-73
2022/05/23 08:05:46;;;;;;;;;;;;;;;23.98;56.43;98137.56;8349580;28;19960;-73
2022/05/23 08:09:48;;;;;;;;;;;;;;;24.31;56.30;98136.72;8339022;28;19986;-73
2022/05/23 08:13:52;;;;;;;;;;;;;;;24.60;55.07;98129.91;8349869;28;20344;-74
2022/05/23 08:17:53;;;;;;;;;;;;;;;24.36;54.13;98126.56;8329201;28;19929;-74
2022/05/23 08:21:59;;;;;;;;;;;;;;;23.87;54.81;98126.97;8317500;28;19935;-73
2022/05/23 08:26:00;;;;;;;;;;;;;;;23.63;56.68;98127.94;8317266;28;19935;-73
2022/05/23 08:30:04;;;;;;;;;;;;;;;23.54;56.09;98112.72;8316500;28;19964;-74
2022/05/23 08:34:06;;;;;;;;;;;;;;;23.38;59.09;98114.88;8315838;28;19925;-74
2022/05/23 08:38:07;;;;;;;;;;;;;;;23.26;58.85;98121.94;8316198;28;19982;-73
2022/05/23 08:42:14;;;;;;;;;;;;;;;23.06;59.58;98122.63;8316316;28;19968;-74
2022/05/23 08:46:19;;;;;;;;;;;;;;;22.72;59.07;98125.09;8298394;28;20552;-73
2022/05/23 08:50:24;;;;;;;;;;;;;;;22.51;62.66;98119.59;8312688;28;20785;-73
2022/05/23 08:54:28;;;;;;;;;;;;;;;22.40;64.29;98127.47;8315833;28;19924;-74
2022/05/23 08:58:34;;;;;;;;;;;;;;;22.33;63.30;98118.28;8315478;28;19932;-73
2022/05/23 09:02:57;;;;;;;;;;;;;;;22.22;64.17;98110.28;8314561;28;19935;-73
2022/05/23 09:07:00;;;;;;;;;;;;;;;22.07;65.42;98101.66;8313498;28;20000;-73
2022/05/23 09:11:08;;;;;;;;;;;;;;;21.90;66.22;98086.13;8317656;28;19953;-73
2022/05/23 09:15:09;;;;;;;;;;;;;;;21.73;68.03;98052.16;8316390;28;19982;-73
2022/05/23 09:19:17;;;;;;;;;;;;;;;21.52;69.41;98017.50;8315181;28;19939;-74
2022/05/23 09:23:23;;;;;;;;;;;;;;;21.24;71.48;98022.09;8315377;28;19929;-73
2022/05/23 09:27:31;;;;;;;;;;;;;;;20.97;71.66;98019.53;8314103;28;19925;-73
2022/05/23 09:31:44;;;;;;;;;;;;;;;20.77;73.40;97997.13;8315221;28;20019;-73
2022/05/23 09:35:46;;;;;;;;;;;;;;;20.71;75.28;97996.72;8329121;28;19971;-73
2022/05/23 09:39:55;;;;;;;;;;;;;;;20.66;75.64;97975.94;8314017;28;19951;-73
2022/05/23 09:48:17;;;;;;;;;;;;;;;20.84;77.08;97968.56;8313983;28;19935;-73
2022/05/23 09:52:22;;;;;;;;;;;;;;;21.09;77.33;97994.09;8314801;28;19975;-74
2022/05/23 09:56:40;;;;;;;;;;;;;;;21.37;76.08;97998.31;8314104;28;19964;-74
2022/05/23 10:00:57;;;;;;;;;;;;;;;21.60;75.49;97989.59;8310975;28;20035;-74
2022/05/23 10:04:58;;;;;;;;;;;;;;;21.68;72.44;97992.53;8312429;28;19933;-72
2022/05/23 10:09:00;;;;;;;;;;;;;;;21.80;72.38;98008.47;8314686;28;20333;-72
2022/05/23 10:13:14;;;;;;;;;;;;;;;21.93;71.90;98028.63;8311871;28;19929;-72
2022/05/23 10:17:26;;;;;;;;;;;;;;;21.93;69.72;98033.91;8302538;28;20025;-73
2022/05/23 10:21:35;;;;;;;;;;;;;;;22.04;69.34;98059.53;8313683;28;20019;-74
2022/05/23 10:25:39;;;;;;;;;;;;;;;22.11;69.42;98052.91;8312422;28;19963;-73
2022/05/23 10:29:44;;;;;;;;;;;;;;;21.90;68.17;98026.19;8297502;28;20585;-73
2022/05/23 10:33:47;;;;;;;;;;;;;;;21.78;69.44;97978.66;8313784;28;19925;-73
2022/05/23 10:37:51;;;;;;;;;;;;;;;21.57;71.68;98015.41;8313410;28;19983;-74
2022/05/23 10:42:08;;;;;;;;;;;;;;;21.54;73.95;98040.22;8314579;28;20619;-74
2022/05/23 10:46:12;;;;;;;;;;;;;;;21.47;74.96;98038.97;8312614;28;19937;-74
2022/05/23 10:50:14;;;;;;;;;;;;;;;21.40;75.01;98046.47;8313579;28;19932;-73
2022/05/23 10:54:34;;;;;;;;;;;;;;;21.40;75.31;98030.63;8313557;28;20021;-73
2022/05/23 10:58:43;;;;;;;;;;;;;;;21.46;75.67;98010.03;8311728;28;20762;-73
2022/05/23 11:02:53;;;;;;;;;;;;;;;21.65;76.08;98007.75;8315605;28;19986;-73
2022/05/23 11:06:58;;;;;;;;;;;;;;;21.82;76.00;98002.09;8316009;28;19925;-73
2022/05/23 11:11:23;;;;;;;;;;;;;;;21.91;72.47;98004.09;8316777;28;20331;-73
2022/05/23 11:15:43;;;;;;;;;;;;;;;21.97;73.01;98006.28;8317848;28;19972;-73
2022/05/23 11:19:47;;;;;;;;;;;;;;;21.94;71.83;97992.47;8335623;28;20044;-74
2022/05/23 11:23:53;;;;;;;;;;;;;;;21.93;72.81;97982.84;8318596;28;20509;-73
2022/05/23 11:37:09;;;;;;;;;;;;;;;21.70;73.07;97931.66;8302143;28;19936;-73
2022/05/23 11:41:26;;;;;;;;;;;;;;;21.82;74.01;97956.34;8298251;28;20363;-73
2022/05/23 11:49:58;;;;;;;;;;;;;;;21.92;71.98;97957.38;8317312;28;19936;-73
2022/05/23 11:54:00;;;;;;;;;;;;;;;21.82;72.73;97975.69;8318675;28;20347;-74
2022/05/23 11:58:21;;;;;;;;;;;;;;;21.89;72.92;97958.41;8317681;28;19924;-74
2022/05/23 12:02:26;;;;;;;;;;;;;;;21.93;72.53;97929.97;8309740;28;20542;-74
2022/05/23 12:06:28;;;;;;;;;;;;;;;21.92;72.34;97945.00;8319086;28;19925;-74
2022/05/23 12:10:36;;;;;;;;;;;;;;;21.95;71.53;97942.13;8317569;28;20031;-72
2022/05/23 12:14:37;;;;;;;;;;;;;;;22.03;71.87;97945.03;8317266;28;19988;-74
2022/05/23 12:18:39;;;;;;;;;;;;;;;22.31;71.58;97925.34;8315489;28;20028;-74
2022/05/23 12:23:00;;;;;;;;;;;;;;;22.92;71.07;97906.56;8317582;28;19976;-74
2022/05/23 12:27:04;;;;;;;;;;;;;;;23.68;70.02;97904.91;8316719;28;19956;-75
2022/05/23 12:31:07;;;;;;;;;;;;;;;24.01;66.20;97888.03;8314127;28;19924;-74
2022/05/23 12:35:09;;;;;;;;;;;;;;;23.89;65.65;97881.13;8318897;28;19935;-74
2022/05/23 12:39:29;;;;;;;;;;;;;;;23.81;66.99;97884.41;8332200;28;20411;-74
2022/05/23 12:43:31;;;;;;;;;;;;;;;23.54;64.18;97884.84;8362927;28;19966;-74
2022/05/23 12:47:38;;;;;;;;;;;;;;;23.61;66.48;97894.00;8350798;28;20016;-74
2022/05/23 12:51:58;;;;;;;;;;;;;;;23.53;64.56;97880.50;8333692;28;19960;-76
2022/05/23 12:55:59;;;;;;;;;;;;;;;23.46;65.02;97874.84;8347530;28;19971;-74
2022/05/23 13:00:03;;;;;;;;;;;;;;;23.57;65.29;97862.56;8350053;28;19929;-73
2022/05/23 13:04:27;;;;;;;;;;;;;;;23.67;65.72;97856.38;8332850;28;20336;-75
2022/05/23 13:08:44;;;;;;;;;;;;;;;23.72;64.56;97856.00;8350652;28;19932;-75
2022/05/23 13:12:54;;;;;;;;;;;;;;;23.62;63.17;97844.47;8342449;28;19928;-76
2022/05/23 13:16:57;;;;;;;;;;;;;;;23.54;63.21;97838.94;8358087;28;19979;-76
2022/05/23 13:25:25;;;;;;;;;;;;;;;23.74;62.62;97825.75;8360914;28;19925;-75
2022/05/23 13:29:27;;;;;;;;;;;;;;;23.55;61.08;97812.31;8342952;28;19947;-75
2022/05/23 13:33:31;;;;;;;;;;;;;;;23.43;61.63;97792.13;8357825;28;19935;-76
2022/05/23 13:37:35;;;;;;;;;;;;;;;23.30;62.56;97800.22;8327360;28;20019;-75
2022/05/23 13:41:36;;;;;;;;;;;;;;;23.47;63.74;97812.94;8324684;28;20039;-76
2022/05/23 13:45:39;;;;;;;;;;;;;;;23.30;63.25;97817.94;8343332;28;19975;-75
2022/05/23 13:49:45;;;;;;;;;;;;;;;23.00;63.52;97808.03;8327683;28;19976;-77
2022/05/23 13:54:12;;;;;;;;;;;;;;;22.76;65.10;97793.09;8305672;28;20008;-75
2022/05/23 13:58:21;;;;;;;;;;;;;;;22.44;65.85;97792.13;8313490;28;20075;-74
2022/05/23 14:02:26;;;;;;;;;;;;;;;22.29;66.69;97802.13;8312141;28;19925;-74
2022/05/23 14:06:32;;;;;;;;;;;;;;;22.36;67.21;97805.13;8299066;28;19932;-74
2022/05/23 14:10:37;;;;;;;;;;;;;;;23.00;66.70;97805.38;8315438;28;20333;-75
2022/05/23 14:14:58;;;;;;;;;;;;;;;23.60;64.53;97801.38;8314624;28;19983;-74
2022/05/23 14:19:19;;;;;;;;;;;;;;;23.74;62.59;97788.66;8307276;28;20078;-75
2022/05/23 14:23:22;;;;;;;;;;;;;;;24.01;62.99;97779.31;8315567;28;20028;-75
2022/05/23 14:27:23;;;;;;;;;;;;;;;24.33;60.75;97752.72;8311458;28;19924;-75
2022/05/23 14:31:29;;;;;;;;;;;;;;;24.51;59.13;97737.88;8294130;28;19952;-74
2022/05/23 14:35:38;;;;;;;;;;;;;;;24.56;57.30;97748.06;8314422;28;19925;-74
2022/05/23 14:39:39;;;;;;;;;;;;;;;24.72;58.29;97735.13;8322096;28;20071;-74
2022/05/23 14:43:41;;;;;;;;;;;;;;;24.92;57.80;97742.16;8321073;28;19925;-74
2022/05/23 14:47:55;;;;;;;;;;;;;;;24.80;55.63;97745.09;8322017;28;20539;-74
2022/05/23 14:51:57;;;;;;;;;;;;;;;24.60;55.86;97746.84;8319084;28;20580;-75
2022/05/23 14:56:06;;;;;;;;;;;;;;;24.19;56.46;97748.59;8316870;28;19943;-75
2022/05/23 15:00:37;;;;;;;;;;;;;;;23.90;57.31;97739.66;8319324;28;19925;-74
2022/05/23 15:04:41;;;;;;;;;;;;;;;23.70;57.68;97733.38;8314086;28;19925;-75
2022/05/23 15:08:43;;;;;;;;;;;;;;;23.90;58.05;97721.09;8318069;28;20519;-75
2022/05/23 15:12:44;;;;;;;;;;;;;;;24.29;56.84;97708.88;8315092;28;19956;-75
2022/05/23 15:16:47;;;;;;;;;;;;;;;24.57;55.94;97718.75;8317069;28;20341;-75
2022/05/23 15:20:48;;;;;;;;;;;;;;;24.61;55.80;97711.38;8319343;28;19956;-73
2022/05/23 15:24:50;;;;;;;;;;;;;;;24.75;56.40;97704.81;8316237;28;20634;-73
2022/05/23 15:28:52;;;;;;;;;;;;;;;24.69;56.16;97696.44;8318041;28;19975;-74
2022/05/23 15:32:54;;;;;;;;;;;;;;;24.51;55.60;97692.75;8317901;28;19925;-72
2022/05/23 15:36:56;;;;;;;;;;;;;;;24.23;56.13;97690.78;8300547;28;20364;-72
2022/05/23 15:40:57;;;;;;;;;;;;;;;24.05;57.40;97691.41;8316243;28;19960;-74
2022/05/23 15:45:04;;;;;;;;;;;;;;;24.01;57.12;97684.72;8319323;28;19924;-74
2022/05/23 15:49:05;;;;;;;;;;;;;;;23.84;57.54;97685.31;8316256;28;20031;-75
2022/05/23 15:53:07;;;;;;;;;;;;;;;23.69;58.41;97700.72;8319578;28;19936;-76
2022/05/23 15:57:09;;;;;;;;;;;;;;;23.28;61.09;97712.13;8316411;28;19929;-76
2022/05/23 16:01:12;;;;;;;;;;;;;;;22.72;66.93;97733.44;8322473;28;19971;-75
2022/05/23 16:05:13;;;;;;;;;;;;;;;22.47;71.16;97699.34;8320031;28;19924;-75
2022/05/23 16:09:15;;;;;;;;;;;;;;;22.34;71.91;97717.13;8323768;28;19929;-74
2022/05/23 16:13:16;;;;;;;;;;;;;;;21.79;72.47;97711.66;8319475;28;20432;-74
2022/05/23 16:17:18;;;;;;;;;;;;;;;21.60;75.07;97708.75;8319432;28;19935;-75
2022/05/23 16:21:21;;;;;;;;;;;;;;;21.47;76.75;97694.78;8316960;28;19925;-75
2022/05/23 16:25:23;;;;;;;;;;;;;;;21.32;77.10;97688.84;8317251;28;19925;-75
2022/05/23 16:29:24;;;;;;;;;;;;;;;21.21;78.38;97671.16;8315611;28;19925;-76
2022/05/23 16:37:46;;;;;;;;;;;;;;;20.80;80.04;97672.41;8317270;28;19983;-76
2022/05/23 16:41:48;;;;;;;;;;;;;;;20.63;80.24;97674.59;8318095;28;19925;-77
2022/05/23 16:45:50;;;;;;;;;;;;;;;20.23;80.29;97801.31;8316619;28;19968;-78
2022/05/23 16:49:53;;;;;;;;;;;;;;;19.25;81.11;97788.59;8313218;28;20229;-78
2022/05/23 16:53:55;;;;;;;;;;;;;;;18.92;83.68;97802.13;8316898;28;20333;-77
2022/05/23 16:57:57;;;;;;;;;;;;;;;18.65;84.09;97791.56;8319651;28;19929;-77
2022/05/23 17:02:02;;;;;;;;;;;;;;;18.39;85.22;97791.38;8314561;28;19943;-76
2022/05/23 17:06:03;;;;;;;;;;;;;;;18.27;86.63;97800.00;8316724;28;19924;-77
2022/05/23 17:10:05;;;;;;;;;;;;;;;18.16;87.80;97796.34;8306509;28;20028;-77
2022/05/23 17:14:06;;;;;;;;;;;;;;;18.30;88.41;97812.09;8294741;28;20028;-77
2022/05/23 17:18:08;;;;;;;;;;;;;;;18.35;88.74;97821.41;8283316;28;20343;-77
2022/05/23 17:22:09;;;;;;;;;;;;;;;18.25;88.94;97840.44;8300229;28;19928;-77
2022/05/23 17:26:17;;;;;;;;;;;;;;;18.20;88.89;97848.59;8300344;28;20020;-77
2022/05/23 17:30:19;;;;;;;;;;;;;;;18.09;89.69;97838.72;8300902;28;19925;-78
2022/05/23 17:34:20;;;;;;;;;;;;;;;18.04;90.18;97846.03;8300667;28;20020;-77
2022/05/23 17:38:22;;;;;;;;;;;;;;;17.96;90.59;97850.91;8304124;28;19957;-76
2022/05/23 17:42:23;;;;;;;;;;;;;;;17.99;91.36;97848.09;8317021;28;20016;-77
2022/05/23 17:46:24;;;;;;;;;;;;;;;18.01;91.08;97855.91;8299848;28;19975;-77
2022/05/23 17:50:26;;;;;;;;;;;;;;;18.04;91.43;97861.81;8313035;28;19928;-76
2022/05/23 17:54:28;;;;;;;;;;;;;;;17.97;91.87;97867.53;8299515;28;20333;-77
2022/05/23 17:58:29;;;;;;;;;;;;;;;17.90;92.25;97871.44;8316380;28;20616;-77
2022/05/23 18:02:31;;;;;;;;;;;;;;;17.86;93.41;97872.53;8316245;28;20098;-77
2022/05/23 18:06:34;;;;;;;;;;;;;;;17.76;93.21;97870.44;8322159;28;19921;-77
2022/05/23 18:10:37;;;;;;;;;;;;;;;17.75;93.70;97883.66;8317276;28;19968;-76
2022/05/23 18:19:13;;;;;;;;;;;;;;;17.77;92.94;97885.28;8339538;28;20413;-76
2022/05/23 18:23:15;;;;;;;;;;;;;;;17.83;92.68;97885.84;8324275;28;19983;-77
2022/05/23 18:27:17;;;;;;;;;;;;;;;17.83;91.53;97889.31;8322203;28;19928;-76
2022/05/23 18:31:19;;;;;;;;;;;;;;;17.79;91.20;97890.44;8333353;28;19964;-76
2022/05/23 18:35:21;;;;;;;;;;;;;;;17.80;92.54;97902.63;8332880;28;19935;-76
2022/05/23 18:39:22;;;;;;;;;;;;;;;17.80;92.23;97905.25;8337001;28;19935;-77
2022/05/23 18:43:24;;;;;;;;;;;;;;;17.78;91.45;97913.22;8334926;28;19932;-77
2022/05/23 18:47:25;;;;;;;;;;;;;;;17.78;91.91;97901.88;8328424;28;20360;-77
2022/05/23 18:51:27;;;;;;;;;;;;;;;17.76;91.14;97915.06;8335384;28;19928;-76
2022/05/23 18:55:28;;;;;;;;;;;;;;;17.66;90.07;97931.41;8336105;28;20240;-77
2022/05/23 18:59:30;;;;;;;;;;;;;;;17.59;89.59;97944.03;8331210;28;19925;-78
2022/05/23 19:03:31;;;;;;;;;;;;;;;17.49;89.56;97951.56;8322654;28;20028;-77
2022/05/23 19:07:33;;;;;;;;;;;;;;;17.37;89.07;97960.13;8338515;28;20453;-77
2022/05/23 19:11:35;;;;;;;;;;;;;;;17.27;89.18;97987.81;8321128;28;19975;-77
2022/05/23 19:15:37;;;;;;;;;;;;;;;17.14;88.96;97990.22;8322254;28;19963;-77
2022/05/23 19:19:38;;;;;;;;;;;;;;;17.06;90.18;97997.66;8320780;28;20575;-77
2022/05/23 19:23:40;;;;;;;;;;;;;;;17.01;90.63;98012.78;8317299;28;20400;-76
2022/05/23 19:27:42;;;;;;;;;;;;;;;16.96;90.72;98020.03;8313893;28;20305;-76
2022/05/23 19:31:45;;;;;;;;;;;;;;;16.95;91.01;98015.72;8319279;28;19925;-76
2022/05/23 19:35:46;;;;;;;;;;;;;;;16.86;90.32;98018.81;8319030;28;20506;-76
2022/05/23 19:39:48;;;;;;;;;;;;;;;16.80;89.87;98035.72;8335516;28;20424;-76
2022/05/23 19:43:51;;;;;;;;;;;;;;;16.77;90.18;98043.75;8309283;28;19925;-75
2022/05/23 19:47:52;;;;;;;;;;;;;;;16.67;89.99;98042.50;8315444;28;19939;-76
2022/05/23 19:51:54;;;;;;;;;;;;;;;16.60;90.44;98039.31;8313731;28;20307;-76
2022/05/23 19:55:55;;;;;;;;;;;;;;;16.54;90.56;98041.41;8317343;28;19979;-76
2022/05/23 20:00:17;;;;;;;;;;;;;;;16.46;90.94;98052.25;8319028;28;19924;-76
2022/05/23 20:08:39;;;;;;;;;;;;;;;16.28;89.87;98080.19;8311558;28;19935;-74
2022/05/23 20:12:40;;;;;;;;;;;;;;;16.16;88.79;98088.66;8301294;28;19976;-74
2022/05/23 20:16:42;;;;;;;;;;;;;;;16.07;88.49;98094.34;8302324;28;19928;-74
2022/05/23 20:20:45;;;;;;;;;;;;;;;16.03;89.84;98087.56;8313017;28;19924;-74
2022/05/23 20:24:46;;;;;;;;;;;;;;;15.96;90.35;98094.81;8316400;28;20051;-75
2022/05/23 20:28:48;;;;;;;;;;;;;;;15.88;89.60;98093.50;8314418;28;19925;-74
2022/05/23 20:32:49;;;;;;;;;;;;;;;15.78;90.17;98090.44;8314362;28;19947;-74
2022/05/23 20:36:51;;;;;;;;;;;;;;;15.74;90.17;98106.38;8315608;28;19955;-74
2022/05/23 20:40:52;;;;;;;;;;;;;;;15.71;90.63;98107.34;8315060;28;19925;-74
2022/05/23 20:44:53;;;;;;;;;;;;;;;15.65;90.29;98111.13;8313897;28;19925;-75
2022/05/23 20:48:56;;;;;;;;;;;;;;;15.57;89.77;98120.19;8314874;28;19979;-75
2022/05/23 20:52:58;;;;;;;;;;;;;;;15.54;89.73;98121.16;8316132;28;20480;-76
2022/05/23 20:56:59;;;;;;;;;;;;;;;15.53;90.49;98103.78;8316278;28;20020;-75
2022/05/23 21:01:05;;;;;;;;;;;;;;;15.51;91.09;98115.22;8315120;28;19993;-74
2022/05/23 21:05:07;;;;;;;;;;;;;;;15.41;91.17;98115.63;8316290;28;19987;-74
2022/05/23 21:09:08;;;;;;;;;;;;;;;15.41;91.56;98127.84;8316210;28;20332;-75
2022/05/23 21:13:10;;;;;;;;;;;;;;;15.37;91.67;98128.91;8315514;28;19935;-74
2022/05/23 21:17:12;;;;;;;;;;;;;;;15.34;92.19;98123.81;8316666;28;19925;-74
2022/05/23 21:21:14;;;;;;;;;;;;;;;15.31;92.20;98127.44;8316594;28;19964;-74
2022/05/23 21:25:17;;;;;;;;;;;;;;;15.34;92.93;98129.06;8316331;28;19924;-74
2022/05/23 21:29:19;;;;;;;;;;;;;;;15.33;93.00;98132.59;8316130;28;19960;-74
2022/05/23 21:33:20;;;;;;;;;;;;;;;15.31;93.08;98129.19;8315209;28;19924;-74
2022/05/23 21:37:23;;;;;;;;;;;;;;;15.34;93.59;98142.97;8316479;28;20419;-74
2022/05/23 21:50:07;;;;;;;;;;;;;;;15.27;92.85;98141.56;8317265;28;19979;-74
2022/05/23 21:54:09;;;;;;;;;;;;;;;15.24;92.53;98136.44;8301559;28;19926;-75
2022/05/23 21:58:11;;;;;;;;;;;;;;;15.29;93.35;98144.97;8300493;28;20298;-75
2022/05/23 22:02:14;;;;;;;;;;;;;;;15.37;94.14;98136.75;8315934;28;20907;-75
2022/05/23 22:06:18;;;;;;;;;;;;;;;15.41;94.30;98139.16;8309541;28;19932;-75
2022/05/23 22:10:19;;;;;;;;;;;;;;;15.36;94.63;98148.16;8318334;28;19956;-74
2022/05/23 22:14:21;;;;;;;;;;;;;;;15.34;94.07;98152.59;8318025;28;19984;-74
2022/05/23 22:18:22;;;;;;;;;;;;;;;15.29;93.50;98171.13;8334609;28;19925;-74
2022/05/23 22:22:23;;;;;;;;;;;;;;;15.27;93.66;98179.94;8315533;28;19968;-74
2022/05/23 22:26:25;;;;;;;;;;;;;;;15.25;94.02;98189.59;8334961;28;20039;-74